Time;durP1;ratioP1;P1;durP2;ratioP2;P2;SDS_P1;SDS_P2;PMS_P1;PMS_P2;Temp;Humidity;BMP_temperature;BMP_pressure;BME280_temperature;BME280_humidity;BME280_pressure;Samples;Min_cycle;Max_cycle;Signal;HPM_P1;HPM_P2
2022/06/03 00:01:00;;;;;;;;;;;;;;;21.24;30.91;97969.41;4861256;29;987;-75
2022/06/03 00:03:30;;;;;;;;;;;;;;;21.29;30.61;97968.84;4861494;29;1072;-75
2022/06/03 00:05:58;;;;;;;;;;;;;;;21.23;30.97;97967.78;4861274;29;1921;-76
2022/06/03 00:08:23;;;;;;;;;;;;;;;21.11;31.01;97965.69;4861391;29;979;-76
2022/06/03 00:10:49;;;;;;;;;;;;;;;21.26;30.75;97961.25;4861446;29;965;-75
2022/06/03 00:13:17;;;;;;;;;;;;;;;21.38;30.51;97961.78;4842873;29;1486;-76
2022/06/03 00:15:49;;;;;;;;;;;;;;;21.48;30.03;97955.84;4884460;29;960;-75
2022/06/03 00:18:25;;;;;;;;;;;;;;;21.25;30.26;97948.34;4898326;29;1262;-76
2022/06/03 00:20:54;;;;;;;;;;;;;;;21.18;30.66;97953.38;4927956;29;1060;-76
2022/06/03 00:23:35;;;;;;;;;;;;;;;21.30;30.51;97945.00;4936747;29;912;-75
2022/06/03 00:26:36;;;;;;;;;;;;;;;21.24;30.37;97941.09;4936209;29;1915;-76
2022/06/03 00:29:04;;;;;;;;;;;;;;;21.30;30.55;97930.84;4917219;29;1178;-76
2022/06/03 00:32:02;;;;;;;;;;;;;;;21.72;30.61;97933.75;4917135;29;1053;-75
2022/06/03 00:34:33;;;;;;;;;;;;;;;21.87;30.76;97924.88;4879994;29;1194;-76
2022/06/03 00:37:00;;;;;;;;;;;;;;;22.18;30.05;97923.16;4842860;29;1123;-76
2022/06/03 00:39:48;;;;;;;;;;;;;;;21.82;30.45;97929.03;4845400;29;940;-76
2022/06/03 00:42:32;;;;;;;;;;;;;;;21.50;30.67;97935.56;4809717;29;1018;-76
2022/06/03 00:45:10;;;;;;;;;;;;;;;21.32;30.79;97936.84;4809407;29;1920;-75
2022/06/03 00:47:43;;;;;;;;;;;;;;;21.31;30.65;97937.31;4809719;29;948;-76
2022/06/03 00:50:14;;;;;;;;;;;;;;;21.27;30.83;97937.34;4794450;29;1002;-75
2022/06/03 00:52:48;;;;;;;;;;;;;;;21.25;30.75;97939.84;4809884;29;1135;-76
2022/06/03 00:55:23;;;;;;;;;;;;;;;21.31;30.33;97937.31;4809669;29;973;-75
2022/06/03 00:57:51;;;;;;;;;;;;;;;21.30;30.44;97933.69;4809633;29;971;-75
2022/06/03 01:00:19;;;;;;;;;;;;;;;21.29;30.18;97943.34;4809808;29;973;-76
2022/06/03 01:02:57;;;;;;;;;;;;;;;21.31;30.19;97946.59;4823662;29;1005;-75
2022/06/03 01:05:29;;;;;;;;;;;;;;;21.35;30.05;97951.34;4845844;29;1922;-76
2022/06/03 01:07:54;;;;;;;;;;;;;;;21.44;30.56;97948.69;4845836;29;917;-75
2022/06/03 01:10:32;;;;;;;;;;;;;;;21.77;30.12;97938.88;4868609;29;972;-76
2022/06/03 01:13:18;;;;;;;;;;;;;;;21.91;30.01;97956.69;4901229;29;1222;-76
2022/06/03 01:16:02;;;;;;;;;;;;;;;21.95;29.65;97954.56;4863831;29;1114;-75
2022/06/03 01:18:39;;;;;;;;;;;;;;;21.54;29.97;97958.91;4873537;29;1006;-76
2022/06/03 01:21:13;;;;;;;;;;;;;;;21.48;29.97;97955.84;4904828;29;987;-76
2022/06/03 01:23:57;;;;;;;;;;;;;;;21.52;29.72;97955.75;4919909;29;980;-76
2022/06/03 01:26:29;;;;;;;;;;;;;;;21.42;30.09;97951.16;4919941;29;1918;-76
2022/06/03 01:28:57;;;;;;;;;;;;;;;21.38;29.78;97953.28;4920031;29;946;-76
2022/06/03 01:31:41;;;;;;;;;;;;;;;21.29;30.02;97957.50;4920124;29;1343;-75
2022/06/03 01:34:25;;;;;;;;;;;;;;;21.26;30.13;97964.06;4920105;29;1011;-76
2022/06/03 01:36:51;;;;;;;;;;;;;;;21.18;30.36;97959.81;4919807;29;1037;-76
2022/06/03 01:39:16;;;;;;;;;;;;;;;21.29;30.00;97966.00;4882232;29;1039;-75
2022/06/03 01:42:10;;;;;;;;;;;;;;;21.16;30.41;97970.81;4882497;29;1015;-75
2022/06/03 01:44:42;;;;;;;;;;;;;;;21.20;30.15;97980.00;4831080;29;1980;-75
2022/06/03 01:47:16;;;;;;;;;;;;;;;21.25;29.83;97976.63;4814992;29;1035;-75
2022/06/03 01:50:00;;;;;;;;;;;;;;;21.52;29.99;97972.75;4807684;29;986;-76
2022/06/03 01:52:29;;;;;;;;;;;;;;;21.89;29.41;97973.34;4832723;29;987;-76
2022/06/03 01:54:54;;;;;;;;;;;;;;;21.75;29.53;97978.16;4893637;29;908;-75
2022/06/03 01:57:39;;;;;;;;;;;;;;;21.56;29.92;97979.09;4881867;29;964;-76
2022/06/03 02:00:07;;;;;;;;;;;;;;;21.45;29.61;97972.91;4882354;29;1027;-76
2022/06/03 02:02:49;;;;;;;;;;;;;;;21.22;29.87;97974.69;4881767;29;1011;-75
2022/06/03 02:05:17;;;;;;;;;;;;;;;21.33;29.86;97982.94;4863107;29;1906;-76
2022/06/03 02:08:03;;;;;;;;;;;;;;;21.22;29.88;97990.88;4863065;29;1089;-75
2022/06/03 02:10:54;;;;;;;;;;;;;;;21.20;30.10;97991.31;4818754;29;1833;-75
2022/06/03 02:13:38;;;;;;;;;;;;;;;21.17;29.97;97995.03;4826335;29;973;-76
2022/06/03 02:16:22;;;;;;;;;;;;;;;21.08;30.30;97997.66;4810857;29;1015;-76
2022/06/03 02:19:13;;;;;;;;;;;;;;;21.15;30.10;97997.50;4807925;29;1034;-76
2022/06/03 02:21:44;;;;;;;;;;;;;;;21.24;30.37;97989.22;4790194;29;1099;-76
2022/06/03 02:24:28;;;;;;;;;;;;;;;21.75;29.41;97995.16;4789859;29;1888;-75
2022/06/03 02:26:53;;;;;;;;;;;;;;;22.06;29.17;97997.53;4790002;29;1148;-75
2022/06/03 02:32:40;;;;;;;;;;;;;;;21.47;29.54;98005.22;4826289;29;970;-76
2022/06/03 02:35:44;;;;;;;;;;;;;;;21.29;29.81;98011.28;4826355;29;991;-76
2022/06/03 02:38:28;;;;;;;;;;;;;;;21.26;29.96;98006.53;4881264;29;945;-76
2022/06/03 02:40:56;;;;;;;;;;;;;;;21.38;29.67;98007.06;4881138;29;1008;-76
2022/06/03 02:43:25;;;;;;;;;;;;;;;21.19;29.91;98012.38;4862272;29;971;-76
2022/06/03 02:45:51;;;;;;;;;;;;;;;21.39;29.58;98014.31;4844119;29;1903;-76
2022/06/03 02:48:26;;;;;;;;;;;;;;;21.32;29.67;98016.09;4858298;29;1090;-76
2022/06/03 02:50:55;;;;;;;;;;;;;;;21.24;29.96;98026.00;4862320;29;1024;-76
2022/06/03 02:53:35;;;;;;;;;;;;;;;21.75;29.21;98020.63;4877963;29;1082;-76
2022/06/03 02:56:19;;;;;;;;;;;;;;;22.03;28.89;98029.63;4883397;29;2100;-76
2022/06/03 02:59:14;;;;;;;;;;;;;;;21.71;29.27;98030.47;4876969;29;991;-75
2022/06/03 03:01:39;;;;;;;;;;;;;;;21.42;29.68;98038.91;4825620;29;944;-76
2022/06/03 03:04:08;;;;;;;;;;;;;;;21.34;30.08;98021.31;4825377;29;1992;-76
2022/06/03 03:06:42;;;;;;;;;;;;;;;21.32;30.04;98038.75;4810299;29;1168;-75
2022/06/03 03:09:08;;;;;;;;;;;;;;;21.13;30.13;98041.63;4836104;29;993;-76
2022/06/03 03:11:42;;;;;;;;;;;;;;;21.27;29.53;98042.06;4843236;29;1018;-76
2022/06/03 03:14:13;;;;;;;;;;;;;;;21.19;29.85;98042.69;4858292;29;986;-76
2022/06/03 03:16:57;;;;;;;;;;;;;;;21.32;29.73;98055.72;4880360;29;1174;-75
2022/06/03 03:19:35;;;;;;;;;;;;;;;21.37;29.58;98050.78;4862078;29;1424;-76
2022/06/03 03:22:03;;;;;;;;;;;;;;;21.31;29.56;98048.47;4862073;29;944;-76
2022/06/03 03:24:34;;;;;;;;;;;;;;;21.10;30.02;98048.97;4861673;29;1978;-75
2022/06/03 03:27:02;;;;;;;;;;;;;;;21.17;29.85;98053.66;4870644;29;894;-76
2022/06/03 03:29:37;;;;;;;;;;;;;;;21.75;29.42;98054.63;4874798;29;1284;-75
2022/06/03 03:32:05;;;;;;;;;;;;;;;21.87;28.89;98061.63;4851083;29;1274;-76
2022/06/03 03:34:33;;;;;;;;;;;;;;;21.80;28.94;98059.75;4852349;29;1233;-75
2022/06/03 03:36:59;;;;;;;;;;;;;;;21.63;29.46;98046.06;4855646;29;1258;-76
2022/06/03 03:39:24;;;;;;;;;;;;;;;21.36;29.59;98052.03;4920367;29;1243;-76
2022/06/03 03:42:08;;;;;;;;;;;;;;;21.21;29.81;98054.38;4911324;29;2077;-75
2022/06/03 03:44:52;;;;;;;;;;;;;;;21.32;29.48;98050.06;4897222;29;1956;-75
2022/06/03 03:47:36;;;;;;;;;;;;;;;21.17;30.08;98060.09;4898864;29;1115;-75
2022/06/03 03:50:19;;;;;;;;;;;;;;;21.08;30.48;98063.53;4911744;29;1047;-76
2022/06/03 03:53:00;;;;;;;;;;;;;;;21.23;29.87;98066.03;4936486;29;1037;-75
2022/06/03 03:55:44;;;;;;;;;;;;;;;21.55;29.74;98073.75;4917577;29;1240;-75
2022/06/03 03:58:25;;;;;;;;;;;;;;;21.91;29.40;98070.00;4916969;29;1812;-75
2022/06/03 04:01:06;;;;;;;;;;;;;;;21.83;29.37;98064.53;4917609;29;1128;-76
2022/06/03 04:03:34;;;;;;;;;;;;;;;21.54;29.74;98078.63;4895358;29;1458;-75
2022/06/03 04:06:06;;;;;;;;;;;;;;;21.34;30.04;98066.59;4879758;29;1985;-75
2022/06/03 04:09:03;;;;;;;;;;;;;;;21.41;29.77;98065.63;4879924;29;978;-75
2022/06/03 04:11:29;;;;;;;;;;;;;;;21.43;29.82;98069.59;4898483;29;1256;-75
2022/06/03 04:14:00;;;;;;;;;;;;;;;21.27;30.28;98059.06;4918302;29;1697;-75
2022/06/03 04:16:35;;;;;;;;;;;;;;;21.33;30.25;98073.50;4922267;29;2043;-75
2022/06/03 04:19:09;;;;;;;;;;;;;;;21.42;29.89;98070.06;4923177;29;1713;-75
2022/06/03 04:22:04;;;;;;;;;;;;;;;21.33;29.98;98062.97;4885813;29;925;-75
2022/06/03 04:24:32;;;;;;;;;;;;;;;21.14;30.64;98066.66;4847082;29;1918;-76
2022/06/03 04:27:03;;;;;;;;;;;;;;;21.22;30.28;98062.41;4830682;29;1122;-75
2022/06/03 04:29:34;;;;;;;;;;;;;;;21.22;30.23;98059.56;4830580;29;1007;-75
2022/06/03 04:32:03;;;;;;;;;;;;;;;21.21;30.65;98072.13;4812195;29;1412;-75
2022/06/03 04:34:28;;;;;;;;;;;;;;;21.28;30.68;98057.00;4812439;29;1052;-75
2022/06/03 04:36:59;;;;;;;;;;;;;;;21.23;30.88;98061.16;4830113;29;1190;-75
2022/06/03 04:39:38;;;;;;;;;;;;;;;21.60;31.27;98053.41;4828770;29;1779;-76
2022/06/03 04:42:22;;;;;;;;;;;;;;;21.84;30.91;98054.78;4815341;29;2043;-75
2022/06/03 04:48:41;;;;;;;;;;;;;;;21.42;31.77;98053.06;4861702;29;1701;-75
2022/06/03 04:51:25;;;;;;;;;;;;;;;21.47;31.76;98052.53;4866881;29;1899;-76
2022/06/03 04:53:53;;;;;;;;;;;;;;;21.37;31.73;98047.94;4906465;29;1109;-75
2022/06/03 04:56:28;;;;;;;;;;;;;;;21.27;31.91;98052.59;4862173;29;1839;-75
2022/06/03 04:59:02;;;;;;;;;;;;;;;21.43;31.83;98043.34;4882497;29;2165;-76
2022/06/03 05:01:46;;;;;;;;;;;;;;;21.35;32.43;98050.41;4899118;29;2072;-75
2022/06/03 05:04:30;;;;;;;;;;;;;;;21.37;32.33;98050.78;4904317;29;1902;-76
2022/06/03 05:07:05;;;;;;;;;;;;;;;21.39;32.50;98065.28;4924771;29;1590;-75
2022/06/03 05:09:33;;;;;;;;;;;;;;;21.40;32.47;98072.50;4888399;29;1039;-75
2022/06/03 05:12:18;;;;;;;;;;;;;;;21.47;32.18;98072.34;4903932;29;997;-75
2022/06/03 05:14:44;;;;;;;;;;;;;;;21.37;32.33;98084.75;4904381;29;2097;-75
2022/06/03 05:17:25;;;;;;;;;;;;;;;21.37;32.48;98084.75;4904246;29;1151;-76
2022/06/03 05:19:51;;;;;;;;;;;;;;;21.29;32.44;98084.06;4888495;29;1209;-75
2022/06/03 05:22:32;;;;;;;;;;;;;;;21.36;32.40;98089.59;4908917;29;1100;-75
2022/06/03 05:25:04;;;;;;;;;;;;;;;21.44;32.11;98095.88;4902328;29;1923;-75
2022/06/03 05:27:30;;;;;;;;;;;;;;;21.30;32.66;98091.38;4894450;29;1682;-75
2022/06/03 05:29:58;;;;;;;;;;;;;;;21.37;32.55;98093.22;4884877;29;1786;-75
2022/06/03 05:32:41;;;;;;;;;;;;;;;21.23;32.93;98089.47;4904969;29;1613;-75
2022/06/03 05:35:13;;;;;;;;;;;;;;;21.27;32.82;98097.88;4899364;29;1911;-76
2022/06/03 05:37:38;;;;;;;;;;;;;;;21.32;32.80;98101.00;4915306;29;971;-75
2022/06/03 05:40:09;;;;;;;;;;;;;;;21.36;32.35;98100.13;4950661;28;1921;-75
2022/06/03 05:42:53;;;;;;;;;;;;;;;21.29;32.67;98099.00;4977404;28;1055;-75
2022/06/03 05:45:24;;;;;;;;;;;;;;;21.27;32.66;98104.31;4976578;28;1902;-75
2022/06/03 05:47:53;;;;;;;;;;;;;;;21.43;32.17;98106.41;4977528;28;1197;-76
2022/06/03 05:50:35;;;;;;;;;;;;;;;21.44;32.29;98107.19;4977701;28;1006;-76
2022/06/03 05:53:21;;;;;;;;;;;;;;;21.45;32.11;98117.28;4977041;28;2033;-76
2022/06/03 05:55:46;;;;;;;;;;;;;;;21.37;32.48;98118.72;4903595;29;1122;-75
2022/06/03 05:58:30;;;;;;;;;;;;;;;21.18;33.06;98123.16;4919740;29;1130;-75
2022/06/03 06:01:14;;;;;;;;;;;;;;;21.31;32.64;98126.94;4919486;29;1349;-75
2022/06/03 06:03:58;;;;;;;;;;;;;;;21.26;32.83;98125.38;4908627;29;1089;-75
2022/06/03 06:06:42;;;;;;;;;;;;;;;21.34;32.75;98128.84;4900312;29;1992;-75
2022/06/03 06:09:07;;;;;;;;;;;;;;;21.46;32.70;98121.72;4908070;29;1183;-75
2022/06/03 06:11:33;;;;;;;;;;;;;;;21.43;32.74;98122.59;4880010;29;1749;-75
2022/06/03 06:14:17;;;;;;;;;;;;;;;21.44;32.68;98112.88;4881836;29;1023;-75
2022/06/03 06:16:43;;;;;;;;;;;;;;;21.38;32.89;98115.44;4825840;29;1178;-75
2022/06/03 06:19:14;;;;;;;;;;;;;;;21.57;32.81;98113.75;4810198;29;1641;-75
2022/06/03 06:21:42;;;;;;;;;;;;;;;21.51;32.67;98109.88;4771465;30;1623;-75
2022/06/03 06:24:12;;;;;;;;;;;;;;;21.46;32.97;98118.91;4771242;30;1742;-75
2022/06/03 06:26:40;;;;;;;;;;;;;;;21.44;32.75;98107.19;4757371;30;1055;-75
2022/06/03 06:29:28;;;;;;;;;;;;;;;21.37;33.01;98113.84;4772300;30;1073;-75
2022/06/03 06:32:06;;;;;;;;;;;;;;;21.38;32.91;98114.63;4737147;30;1826;-75
2022/06/03 06:34:31;;;;;;;;;;;;;;;21.38;33.04;98114.63;4753956;30;1098;-75
2022/06/03 06:37:35;;;;;;;;;;;;;;;21.36;33.06;98111.47;4753692;30;1007;-76
2022/06/03 06:40:06;;;;;;;;;;;;;;;21.41;33.11;98102.44;4754009;30;1039;-76
2022/06/03 06:42:52;;;;;;;;;;;;;;;21.39;33.17;98104.91;4770607;30;1844;-75
2022/06/03 06:45:30;;;;;;;;;;;;;;;21.56;33.01;98115.00;4788896;30;2143;-75
2022/06/03 06:48:10;;;;;;;;;;;;;;;21.71;32.90;98110.59;4810591;29;1066;-75
2022/06/03 06:50:35;;;;;;;;;;;;;;;21.53;33.21;98110.22;4836033;29;1895;-75
2022/06/03 06:56:43;;;;;;;;;;;;;;;21.57;32.95;98111.72;4844080;29;969;-75
2022/06/03 06:59:19;;;;;;;;;;;;;;;21.52;33.24;98102.97;4813463;29;2099;-76
2022/06/03 07:01:45;;;;;;;;;;;;;;;21.59;33.23;98103.56;4843650;29;1082;-75
2022/06/03 07:04:12;;;;;;;;;;;;;;;21.41;33.44;98102.44;4841319;29;1702;-76
2022/06/03 07:06:44;;;;;;;;;;;;;;;21.53;33.26;98102.53;4843509;29;1903;-75
2022/06/03 07:09:10;;;;;;;;;;;;;;;21.55;33.38;98091.56;4865949;29;976;-75
2022/06/03 07:11:46;;;;;;;;;;;;;;;21.62;33.03;98087.75;4928394;29;999;-76
2022/06/03 07:14:14;;;;;;;;;;;;;;;21.68;33.23;98077.47;4920035;29;1629;-76
2022/06/03 07:19:55;;;;;;;;;;;;;;;21.44;33.67;98093.03;4917734;29;1812;-75
2022/06/03 07:22:41;;;;;;;;;;;;;;;21.52;33.48;98095.28;4917938;29;1222;-75
2022/06/03 07:25:25;;;;;;;;;;;;;;;21.55;33.58;98090.75;4859785;29;1907;-75
2022/06/03 07:27:54;;;;;;;;;;;;;;;21.41;33.68;98080.59;4861745;29;1005;-75
2022/06/03 07:30:20;;;;;;;;;;;;;;;21.66;33.60;98077.13;4861508;29;1006;-75
2022/06/03 07:33:00;;;;;;;;;;;;;;;21.62;33.48;98084.13;4870281;29;1109;-75
2022/06/03 07:35:48;;;;;;;;;;;;;;;21.61;33.73;98083.34;4842304;29;1773;-75
2022/06/03 07:38:20;;;;;;;;;;;;;;;21.62;33.55;98078.47;4828263;29;1044;-75
2022/06/03 07:40:50;;;;;;;;;;;;;;;21.59;33.86;98080.13;4843051;29;971;-75
2022/06/03 07:43:28;;;;;;;;;;;;;;;21.68;33.63;98071.81;4825021;29;1116;-75
2022/06/03 07:45:58;;;;;;;;;;;;;;;21.75;33.62;98076.50;4824026;29;1907;-74
2022/06/03 07:48:24;;;;;;;;;;;;;;;21.46;34.24;98076.44;4808898;29;1002;-75
2022/06/03 07:50:54;;;;;;;;;;;;;;;21.69;34.00;98075.44;4846042;29;1062;-75
2022/06/03 07:53:24;;;;;;;;;;;;;;;21.69;33.75;98073.41;4861530;29;976;-76
2022/06/03 07:55:53;;;;;;;;;;;;;;;21.68;34.23;98076.69;4842110;29;1548;-75
2022/06/03 07:58:19;;;;;;;;;;;;;;;21.65;34.00;98081.19;4828025;29;972;-76
2022/06/03 08:00:45;;;;;;;;;;;;;;;21.66;34.46;98085.63;4806192;29;1263;-75
2022/06/03 08:03:13;;;;;;;;;;;;;;;21.71;34.08;98087.94;4838729;29;970;-74
2022/06/03 08:05:39;;;;;;;;;;;;;;;21.72;34.13;98094.38;4851652;29;2049;-75
2022/06/03 08:10:58;;;;;;;;;;;;;;;21.87;33.78;98094.81;4917505;29;1102;-75
2022/06/03 08:13:44;;;;;;;;;;;;;;;21.79;34.02;98088.53;4922669;29;1371;-75
2022/06/03 08:16:22;;;;;;;;;;;;;;;21.75;34.49;98091.44;4953766;28;1892;-75
2022/06/03 08:18:47;;;;;;;;;;;;;;;21.81;34.25;98103.03;4939395;29;972;-76
2022/06/03 08:21:27;;;;;;;;;;;;;;;21.62;34.36;98107.56;4939669;29;964;-75
2022/06/03 08:23:53;;;;;;;;;;;;;;;21.68;34.52;98111.47;4937352;29;1660;-75
2022/06/03 08:26:20;;;;;;;;;;;;;;;21.69;34.62;98118.72;4944234;28;1914;-75
2022/06/03 08:28:50;;;;;;;;;;;;;;;21.82;33.91;98121.63;4953174;29;1646;-75
2022/06/03 08:31:16;;;;;;;;;;;;;;;21.85;33.99;98121.53;4917361;29;950;-75
2022/06/03 08:33:42;;;;;;;;;;;;;;;21.87;33.97;98129.59;4916944;29;1039;-75
2022/06/03 08:36:08;;;;;;;;;;;;;;;21.88;33.97;98141.72;4898231;29;941;-76
2022/06/03 08:38:59;;;;;;;;;;;;;;;21.87;34.23;98135.28;4927152;28;1701;-75
2022/06/03 08:41:28;;;;;;;;;;;;;;;21.77;34.33;98142.78;4879708;29;965;-75
2022/06/03 08:44:14;;;;;;;;;;;;;;;21.96;33.94;98154.44;4879887;29;1027;-75
2022/06/03 08:46:40;;;;;;;;;;;;;;;21.66;34.56;98147.09;4879277;29;1911;-76
2022/06/03 08:49:06;;;;;;;;;;;;;;;21.82;34.17;98161.28;4867146;29;1693;-76
2022/06/03 08:51:35;;;;;;;;;;;;;;;21.78;33.90;98149.25;4861178;29;998;-76
2022/06/03 08:54:02;;;;;;;;;;;;;;;21.83;33.87;98146.69;4860830;29;1088;-75
2022/06/03 08:56:31;;;;;;;;;;;;;;;21.81;33.54;98140.69;4863173;29;1783;-75
2022/06/03 08:58:58;;;;;;;;;;;;;;;21.92;33.58;98145.28;4880208;29;1737;-75
2022/06/03 09:01:24;;;;;;;;;;;;;;;21.83;33.71;98148.72;4888665;29;1108;-75
2022/06/03 09:04:05;;;;;;;;;;;;;;;21.80;34.05;98141.88;4920660;29;1004;-75
2022/06/03 09:06:56;;;;;;;;;;;;;;;21.95;33.57;98130.19;4923922;29;1984;-76
2022/06/03 09:09:25;;;;;;;;;;;;;;;21.81;33.73;98135.00;4901791;29;986;-75
2022/06/03 09:11:53;;;;;;;;;;;;;;;21.91;33.56;98135.94;4886124;29;1033;-75
2022/06/03 09:14:21;;;;;;;;;;;;;;;21.90;33.60;98145.69;4886054;29;973;-76
2022/06/03 09:16:47;;;;;;;;;;;;;;;21.92;33.75;98136.78;4883425;29;1769;-75
2022/06/03 09:19:26;;;;;;;;;;;;;;;21.94;33.81;98139.94;4884004;29;1019;-75
2022/06/03 09:21:52;;;;;;;;;;;;;;;21.85;34.00;98147.03;4871663;29;1230;-75
2022/06/03 09:24:19;;;;;;;;;;;;;;;21.91;33.62;98157.81;4886014;29;1000;-75
2022/06/03 09:26:45;;;;;;;;;;;;;;;22.05;33.32;98151.78;4900205;29;1507;-75
2022/06/03 09:29:11;;;;;;;;;;;;;;;21.85;33.77;98151.91;4885782;29;1030;-75
2022/06/03 09:31:37;;;;;;;;;;;;;;;21.90;34.16;98156.22;4901212;29;973;-75
2022/06/03 09:34:03;;;;;;;;;;;;;;;21.92;33.80;98156.59;4901091;29;972;-75
2022/06/03 09:36:28;;;;;;;;;;;;;;;22.05;33.79;98157.47;4862581;29;1686;-75
2022/06/03 09:38:54;;;;;;;;;;;;;;;22.14;33.54;98163.34;4863969;29;1023;-75
2022/06/03 09:41:21;;;;;;;;;;;;;;;21.89;34.17;98168.81;4863628;29;1061;-75
2022/06/03 09:43:48;;;;;;;;;;;;;;;22.10;33.67;98165.44;4808544;29;1007;-76
2022/06/03 09:46:13;;;;;;;;;;;;;;;22.07;33.48;98171.97;4856179;29;1984;-75
2022/06/03 09:48:41;;;;;;;;;;;;;;;21.96;33.79;98188.44;4885180;29;1375;-75
2022/06/03 09:54:11;;;;;;;;;;;;;;;21.82;33.80;98193.25;4868906;29;1017;-75
2022/06/03 09:56:36;;;;;;;;;;;;;;;21.99;33.93;98201.75;4880643;29;1623;-75
2022/06/03 09:59:02;;;;;;;;;;;;;;;22.00;33.51;98194.84;4866341;29;1081;-75
2022/06/03 10:01:28;;;;;;;;;;;;;;;21.99;33.87;98204.56;4844970;29;1372;-75
2022/06/03 10:03:59;;;;;;;;;;;;;;;21.96;33.84;98194.13;4844802;29;1072;-75
2022/06/03 10:06:43;;;;;;;;;;;;;;;21.94;33.79;98196.59;4843502;29;1919;-75
2022/06/03 10:17:38;;;;;;;;;;;;;;;21.81;33.97;98177.50;4880339;29;1784;-75
2022/06/03 10:20:06;;;;;;;;;;;;;;;21.84;33.83;98182.25;4881811;29;1017;-75
2022/06/03 10:22:32;;;;;;;;;;;;;;;21.78;34.22;98183.25;4906827;29;1076;-75
2022/06/03 10:24:57;;;;;;;;;;;;;;;22.04;33.41;98182.16;4919297;29;1903;-76
2022/06/03 10:27:23;;;;;;;;;;;;;;;21.94;33.79;98173.94;4917811;29;1720;-75
2022/06/03 10:29:49;;;;;;;;;;;;;;;21.98;33.81;98186.78;4918918;29;1069;-75
2022/06/03 10:32:16;;;;;;;;;;;;;;;21.93;33.70;98178.03;4895025;29;986;-75
2022/06/03 10:34:42;;;;;;;;;;;;;;;21.88;33.65;98170.06;4918564;29;1024;-75
2022/06/03 10:37:15;;;;;;;;;;;;;;;21.91;33.93;98164.28;4917738;29;2066;-75
2022/06/03 10:39:41;;;;;;;;;;;;;;;22.04;33.49;98167.22;4933969;29;1804;-75
2022/06/03 10:42:06;;;;;;;;;;;;;;;22.16;33.17;98169.34;4965289;28;1082;-76
2022/06/03 10:44:33;;;;;;;;;;;;;;;21.91;33.70;98163.47;4995687;28;1977;-75
2022/06/03 10:47:02;;;;;;;;;;;;;;;21.93;33.79;98178.03;4993804;28;1801;-75
2022/06/03 10:49:28;;;;;;;;;;;;;;;22.03;33.92;98176.94;4963699;28;982;-75
2022/06/03 11:02:52;;;;;;;;;;;;;;;21.91;33.96;98191.81;4967549;28;982;-75
2022/06/03 11:05:20;;;;;;;;;;;;;;;22.00;33.84;98192.00;4995435;28;1977;-75
2022/06/03 11:07:55;;;;;;;;;;;;;;;21.94;33.85;98190.94;4992701;28;1686;-75
2022/06/03 11:10:21;;;;;;;;;;;;;;;22.05;33.74;98185.78;4995139;28;1151;-76
2022/06/03 11:12:46;;;;;;;;;;;;;;;21.93;34.02;98190.16;4994165;28;991;-75
2022/06/03 11:15:31;;;;;;;;;;;;;;;21.95;33.61;98192.53;4997781;28;898;-75
2022/06/03 11:17:56;;;;;;;;;;;;;;;21.99;33.63;98193.25;4994936;28;1672;-75
2022/06/03 11:20:35;;;;;;;;;;;;;;;21.92;33.87;98194.22;4994808;28;906;-75
2022/06/03 11:23:03;;;;;;;;;;;;;;;21.94;33.67;98193.78;4994868;28;1038;-75
2022/06/03 11:25:29;;;;;;;;;;;;;;;21.99;33.62;98190.41;4992820;28;1911;-75
2022/06/03 11:27:56;;;;;;;;;;;;;;;21.93;33.94;98178.03;4955696;28;1040;-75
2022/06/03 11:30:33;;;;;;;;;;;;;;;22.08;33.74;98180.03;4955692;29;1274;-76
2022/06/03 11:33:01;;;;;;;;;;;;;;;22.08;33.56;98190.59;4955638;29;979;-76
2022/06/03 11:35:27;;;;;;;;;;;;;;;22.02;33.89;98186.66;4954242;29;2057;-75
2022/06/03 11:37:53;;;;;;;;;;;;;;;21.75;34.18;98184.91;4936755;29;1893;-75
2022/06/03 11:40:21;;;;;;;;;;;;;;;21.95;33.94;98193.31;4898582;29;970;-76
2022/06/03 11:42:50;;;;;;;;;;;;;;;22.05;33.54;98189.44;4883308;29;1011;-75
2022/06/03 11:48:41;;;;;;;;;;;;;;;21.75;34.36;98196.22;4897885;29;1638;-75
2022/06/03 11:51:07;;;;;;;;;;;;;;;21.91;33.81;98188.97;4898443;29;1059;-75
2022/06/03 11:53:33;;;;;;;;;;;;;;;22.03;33.44;98191.91;4882788;29;997;-75
2022/06/03 11:56:01;;;;;;;;;;;;;;;22.14;33.24;98193.72;4867477;29;957;-75
2022/06/03 11:58:36;;;;;;;;;;;;;;;22.09;33.33;98186.50;4899630;29;1681;-76
2022/06/03 12:01:07;;;;;;;;;;;;;;;22.10;33.23;98186.09;4938598;29;1655;-75
2022/06/03 12:03:41;;;;;;;;;;;;;;;22.07;33.25;98194.63;4939621;29;927;-75
2022/06/03 12:06:15;;;;;;;;;;;;;;;22.10;33.25;98182.44;4939505;29;1903;-75
2022/06/03 12:08:45;;;;;;;;;;;;;;;21.86;33.65;98201.63;4955401;29;1034;-75
2022/06/03 12:13:14;;;;;;;;;;;;;;;22.03;33.36;98199.63;4954055;29;1715;-75
2022/06/03 12:14:10;;;;;;;;;;;;;;;22.05;33.27;98197.13;4941903;29;1186;-75
2022/06/03 12:16:56;;;;;;;;;;;;;;;21.97;33.75;98179.53;4955923;28;1055;-75
2022/06/03 12:19:33;;;;;;;;;;;;;;;22.10;33.35;98182.44;4996587;28;923;-75
2022/06/03 12:22:15;;;;;;;;;;;;;;;22.05;33.35;98177.28;4996108;28;982;-75
2022/06/03 12:24:41;;;;;;;;;;;;;;;22.10;33.53;98182.44;4995872;28;1910;-75
2022/06/03 12:27:10;;;;;;;;;;;;;;;22.15;33.26;98198.13;4996433;28;874;-75
2022/06/03 12:29:37;;;;;;;;;;;;;;;22.07;33.53;98191.81;4995193;28;1704;-76
2022/06/03 12:32:11;;;;;;;;;;;;;;;21.98;33.38;98188.81;4996003;28;941;-75
2022/06/03 12:34:36;;;;;;;;;;;;;;;21.96;33.72;98182.78;4996643;28;894;-75
2022/06/03 12:37:22;;;;;;;;;;;;;;;21.77;33.42;98154.13;4999892;28;927;-75
2022/06/03 12:40:04;;;;;;;;;;;;;;;22.08;33.52;98193.41;4984693;28;1600;-75
2022/06/03 12:42:39;;;;;;;;;;;;;;;22.18;33.02;98189.56;5017137;28;1095;-75
2022/06/03 12:45:05;;;;;;;;;;;;;;;22.02;33.50;98184.66;5017144;28;1926;-75
2022/06/03 12:47:36;;;;;;;;;;;;;;;22.04;33.27;98187.03;5017282;28;985;-75
2022/06/03 12:50:04;;;;;;;;;;;;;;;22.00;33.03;98183.50;5031809;28;1825;-75
2022/06/03 12:52:29;;;;;;;;;;;;;;;22.19;32.68;98196.81;5036923;28;980;-75
2022/06/03 12:55:02;;;;;;;;;;;;;;;22.00;32.95;98186.34;5036949;28;1050;-75
2022/06/03 12:57:27;;;;;;;;;;;;;;;22.11;32.94;98186.88;5020219;28;964;-76
2022/06/03 12:59:58;;;;;;;;;;;;;;;22.21;32.73;98191.47;5035487;28;1771;-76
2022/06/03 13:02:24;;;;;;;;;;;;;;;22.03;32.77;98193.97;4996931;28;941;-76
2022/06/03 13:04:55;;;;;;;;;;;;;;;22.19;32.56;98196.00;4997325;28;1914;-76
2022/06/03 13:07:29;;;;;;;;;;;;;;;22.32;32.53;98200.50;4997083;28;998;-75
2022/06/03 13:10:04;;;;;;;;;;;;;;;22.05;32.88;98188.63;4996479;28;1718;-75
2022/06/03 13:12:32;;;;;;;;;;;;;;;21.98;32.98;98191.66;4995152;28;1038;-75
2022/06/03 13:15:16;;;;;;;;;;;;;;;22.11;32.96;98195.38;4977842;28;1019;-75
2022/06/03 13:17:53;;;;;;;;;;;;;;;22.00;33.03;98189.16;4977336;28;1102;-76
2022/06/03 13:20:37;;;;;;;;;;;;;;;22.01;33.09;98179.41;4976415;28;1780;-75
2022/06/03 13:23:03;;;;;;;;;;;;;;;21.99;33.09;98182.69;4977484;28;989;-75
2022/06/03 13:25:31;;;;;;;;;;;;;;;21.97;32.88;98179.53;4974780;28;1972;-75
2022/06/03 13:28:07;;;;;;;;;;;;;;;22.10;32.92;98188.09;4962006;28;1018;-75
2022/06/03 13:30:34;;;;;;;;;;;;;;;22.07;32.94;98175.63;4977462;28;1429;-75
2022/06/03 13:32:59;;;;;;;;;;;;;;;21.99;32.82;98176.25;4969434;28;1652;-75
2022/06/03 13:35:25;;;;;;;;;;;;;;;22.21;32.66;98177.31;4999235;28;878;-75
2022/06/03 13:37:50;;;;;;;;;;;;;;;22.11;32.64;98172.72;4998767;28;901;-75
2022/06/03 13:40:25;;;;;;;;;;;;;;;22.00;32.83;98172.16;4975725;28;1860;-75
2022/06/03 13:42:59;;;;;;;;;;;;;;;22.21;32.39;98165.97;4976798;28;968;-75
2022/06/03 13:45:40;;;;;;;;;;;;;;;21.99;33.04;98170.56;4974229;28;1969;-75
2022/06/03 13:48:09;;;;;;;;;;;;;;;22.12;32.65;98168.63;4960983;28;1034;-75
2022/06/03 13:50:35;;;;;;;;;;;;;;;22.03;32.77;98165.63;4938088;29;1517;-75
2022/06/03 13:53:01;;;;;;;;;;;;;;;22.14;32.69;98166.16;4900430;29;963;-75
2022/06/03 13:55:28;;;;;;;;;;;;;;;22.18;32.52;98172.53;4844855;29;961;-75
2022/06/03 13:58:01;;;;;;;;;;;;;;;22.10;32.82;98160.59;4844521;29;1019;-75
2022/06/03 14:00:35;;;;;;;;;;;;;;;22.08;32.87;98165.09;4828504;29;1676;-75
2022/06/03 14:03:03;;;;;;;;;;;;;;;22.15;32.82;98155.63;4844672;29;961;-76
2022/06/03 14:05:35;;;;;;;;;;;;;;;22.10;33.13;98154.91;4844419;29;1907;-76
2022/06/03 14:08:05;;;;;;;;;;;;;;;22.09;32.86;98153.28;4844529;29;1460;-75
2022/06/03 14:10:43;;;;;;;;;;;;;;;22.10;33.12;98151.25;4835249;29;1640;-75
2022/06/03 14:13:14;;;;;;;;;;;;;;;22.28;32.31;98151.63;4866295;29;998;-76